sensor_id;sensor_type;location;lat;lon;timestamp;temperature;humidity
22558;DHT22;11445;53.816;8.902;2022-11-20T00:01:30;2.80;99.90
22558;DHT22;11445;53.816;8.902;2022-11-20T00:03:58;2.90;99.90
22558;DHT22;11445;53.816;8.902;2022-11-20T00:06:26;2.80;99.90
22558;DHT22;11445;53.816;8.902;2022-11-20T00:08:55;2.80;99.90
22558;DHT22;11445;53.816;8.902;2022-11-20T00:11:24;2.80;99.90
22558;DHT22;11445;53.816;8.902;2022-11-20T00:13:53;2.80;99.90
22558;DHT22;11445;53.816;8.902;2022-11-20T00:16:22;2.70;99.90
22558;DHT22;11445;53.816;8.902;2022-11-20T00:18:51;2.70;99.90
22558;DHT22;11445;53.816;8.902;2022-11-20T00:21:20;2.80;99.90
22558;DHT22;11445;53.816;8.902;2022-11-20T00:23:48;2.80;99.90
22558;DHT22;11445;53.816;8.902;2022-11-20T00:26:17;2.80;99.90
22558;DHT22;11445;53.816;8.902;2022-11-20T00:28:49;2.80;99.90
22558;DHT22;11445;53.816;8.902;2022-11-20T00:31:16;2.80;99.90
22558;DHT22;11445;53.816;8.902;2022-11-20T00:33:44;2.80;99.90
22558;DHT22;11445;53.816;8.902;2022-11-20T00:36:14;2.80;99.90
22558;DHT22;11445;53.816;8.902;2022-11-20T00:38:42;2.80;99.90
22558;DHT22;11445;53.816;8.902;2022-11-20T00:41:10;2.80;99.90
22558;DHT22;11445;53.816;8.902;2022-11-20T00:43:38;2.80;99.90
22558;DHT22;11445;53.816;8.902;2022-11-20T00:46:07;2.70;99.90
22558;DHT22;11445;53.816;8.902;2022-11-20T00:48:34;2.70;99.90
22558;DHT22;11445;53.816;8.902;2022-11-20T00:51:02;2.70;99.90
22558;DHT22;11445;53.816;8.902;2022-11-20T00:53:30;2.80;99.90
22558;DHT22;11445;53.816;8.902;2022-11-20T00:55:59;2.80;99.90
22558;DHT22;11445;53.816;8.902;2022-11-20T00:58:29;2.80;99.90
22558;DHT22;11445;53.816;8.902;2022-11-20T01:01:00;2.80;99.90
22558;DHT22;11445;53.816;8.902;2022-11-20T01:03:28;2.90;99.90
22558;DHT22;11445;53.816;8.902;2022-11-20T01:06:00;2.80;99.90
22558;DHT22;11445;53.816;8.902;2022-11-20T01:08:30;2.80;99.90
22558;DHT22;11445;53.816;8.902;2022-11-20T01:11:01;2.70;99.90
22558;DHT22;11445;53.816;8.902;2022-11-20T01:13:29;2.60;99.90
22558;DHT22;11445;53.816;8.902;2022-11-20T01:16:07;2.60;99.90
22558;DHT22;11445;53.816;8.902;2022-11-20T01:18:35;2.70;99.90
22558;DHT22;11445;53.816;8.902;2022-11-20T01:21:04;2.70;99.90
22558;DHT22;11445;53.816;8.902;2022-11-20T01:23:34;2.70;99.90
22558;DHT22;11445;53.816;8.902;2022-11-20T01:26:03;2.70;99.90
22558;DHT22;11445;53.816;8.902;2022-11-20T01:28:31;2.70;99.90
22558;DHT22;11445;53.816;8.902;2022-11-20T01:30:58;2.70;99.90
22558;DHT22;11445;53.816;8.902;2022-11-20T01:33:25;2.70;99.90
22558;DHT22;11445;53.816;8.902;2022-11-20T01:35:53;2.70;99.90
22558;DHT22;11445;53.816;8.902;2022-11-20T01:38:20;2.80;99.90
22558;DHT22;11445;53.816;8.902;2022-11-20T01:40:55;2.70;99.90
22558;DHT22;11445;53.816;8.902;2022-11-20T01:43:23;2.70;99.90
22558;DHT22;11445;53.816;8.902;2022-11-20T01:48:36;2.70;99.90
22558;DHT22;11445;53.816;8.902;2022-11-20T01:51:07;2.70;99.90
22558;DHT22;11445;53.816;8.902;2022-11-20T01:53:38;2.70;99.90
22558;DHT22;11445;53.816;8.902;2022-11-20T01:56:09;2.70;99.90
22558;DHT22;11445;53.816;8.902;2022-11-20T01:58:39;2.70;99.90
22558;DHT22;11445;53.816;8.902;2022-11-20T02:01:09;2.70;99.90
22558;DHT22;11445;53.816;8.902;2022-11-20T02:03:36;2.80;99.90
22558;DHT22;11445;53.816;8.902;2022-11-20T02:06:07;2.80;99.90
22558;DHT22;11445;53.816;8.902;2022-11-20T02:08:38;2.80;99.90
22558;DHT22;11445;53.816;8.902;2022-11-20T02:11:07;2.80;99.90
22558;DHT22;11445;53.816;8.902;2022-11-20T02:13:34;2.80;99.90
22558;DHT22;11445;53.816;8.902;2022-11-20T02:16:22;2.80;99.90
22558;DHT22;11445;53.816;8.902;2022-11-20T02:18:49;2.80;99.90
22558;DHT22;11445;53.816;8.902;2022-11-20T02:21:30;2.70;99.90
22558;DHT22;11445;53.816;8.902;2022-11-20T02:24:05;2.70;99.90
22558;DHT22;11445;53.816;8.902;2022-11-20T02:26:38;2.70;99.90
22558;DHT22;11445;53.816;8.902;2022-11-20T02:29:06;2.70;99.90
22558;DHT22;11445;53.816;8.902;2022-11-20T02:31:38;2.70;99.90
22558;DHT22;11445;53.816;8.902;2022-11-20T02:34:06;2.80;99.90
22558;DHT22;11445;53.816;8.902;2022-11-20T02:36:35;2.80;99.90
22558;DHT22;11445;53.816;8.902;2022-11-20T02:39:05;2.80;99.90
22558;DHT22;11445;53.816;8.902;2022-11-20T02:41:34;2.80;99.90
22558;DHT22;11445;53.816;8.902;2022-11-20T02:44:01;2.80;99.90
22558;DHT22;11445;53.816;8.902;2022-11-20T02:46:28;2.80;99.90
22558;DHT22;11445;53.816;8.902;2022-11-20T02:48:55;2.80;99.90
22558;DHT22;11445;53.816;8.902;2022-11-20T02:51:23;2.80;99.90
22558;DHT22;11445;53.816;8.902;2022-11-20T02:53:50;2.70;99.90
22558;DHT22;11445;53.816;8.902;2022-11-20T02:56:19;2.70;99.90
22558;DHT22;11445;53.816;8.902;2022-11-20T02:58:46;2.70;99.90
22558;DHT22;11445;53.816;8.902;2022-11-20T03:01:13;2.70;99.90
22558;DHT22;11445;53.816;8.902;2022-11-20T03:03:40;2.70;99.90
22558;DHT22;11445;53.816;8.902;2022-11-20T03:06:07;2.70;99.90
22558;DHT22;11445;53.816;8.902;2022-11-20T03:08:34;2.70;99.90
22558;DHT22;11445;53.816;8.902;2022-11-20T03:11:03;2.70;99.90
22558;DHT22;11445;53.816;8.902;2022-11-20T03:13:32;2.70;99.90
22558;DHT22;11445;53.816;8.902;2022-11-20T03:16:08;2.70;99.90
22558;DHT22;11445;53.816;8.902;2022-11-20T03:18:36;2.70;99.90
22558;DHT22;11445;53.816;8.902;2022-11-20T03:21:03;2.70;99.90
22558;DHT22;11445;53.816;8.902;2022-11-20T03:23:31;2.70;99.90
22558;DHT22;11445;53.816;8.902;2022-11-20T03:26:09;2.80;99.90
22558;DHT22;11445;53.816;8.902;2022-11-20T03:28:37;2.80;99.90
22558;DHT22;11445;53.816;8.902;2022-11-20T03:31:06;2.80;99.90
22558;DHT22;11445;53.816;8.902;2022-11-20T03:33:33;2.80;99.90
22558;DHT22;11445;53.816;8.902;2022-11-20T03:36:01;2.80;99.90
22558;DHT22;11445;53.816;8.902;2022-11-20T03:38:29;2.80;99.90
22558;DHT22;11445;53.816;8.902;2022-11-20T03:40:59;2.80;99.90
22558;DHT22;11445;53.816;8.902;2022-11-20T03:43:26;2.80;99.90
22558;DHT22;11445;53.816;8.902;2022-11-20T03:45:55;2.80;99.90
22558;DHT22;11445;53.816;8.902;2022-11-20T03:48:22;2.80;99.90
22558;DHT22;11445;53.816;8.902;2022-11-20T03:50:49;2.80;99.90
22558;DHT22;11445;53.816;8.902;2022-11-20T03:53:16;2.70;99.90
22558;DHT22;11445;53.816;8.902;2022-11-20T03:55:43;2.70;99.90
22558;DHT22;11445;53.816;8.902;2022-11-20T03:58:10;2.80;99.90
22558;DHT22;11445;53.816;8.902;2022-11-20T04:00:39;2.70;99.90
22558;DHT22;11445;53.816;8.902;2022-11-20T04:03:07;2.70;99.90
22558;DHT22;11445;53.816;8.902;2022-11-20T04:05:34;2.80;99.90
22558;DHT22;11445;53.816;8.902;2022-11-20T04:08:01;2.80;99.90
22558;DHT22;11445;53.816;8.902;2022-11-20T04:10:28;2.80;99.90
22558;DHT22;11445;53.816;8.902;2022-11-20T04:12:55;2.80;99.90
22558;DHT22;11445;53.816;8.902;2022-11-20T04:15:22;2.80;99.90
22558;DHT22;11445;53.816;8.902;2022-11-20T04:17:49;2.80;99.90
22558;DHT22;11445;53.816;8.902;2022-11-20T04:20:17;2.80;99.90
22558;DHT22;11445;53.816;8.902;2022-11-20T04:22:45;2.80;99.90
22558;DHT22;11445;53.816;8.902;2022-11-20T04:25:12;2.80;99.90
22558;DHT22;11445;53.816;8.902;2022-11-20T04:27:39;2.80;99.90
22558;DHT22;11445;53.816;8.902;2022-11-20T04:30:06;2.80;99.90
22558;DHT22;11445;53.816;8.902;2022-11-20T04:32:34;2.80;99.90
22558;DHT22;11445;53.816;8.902;2022-11-20T04:35:01;2.80;99.90
22558;DHT22;11445;53.816;8.902;2022-11-20T04:37:29;2.70;99.90
22558;DHT22;11445;53.816;8.902;2022-11-20T04:39:56;2.70;99.90
22558;DHT22;11445;53.816;8.902;2022-11-20T04:42:23;2.70;99.90
22558;DHT22;11445;53.816;8.902;2022-11-20T04:44:56;2.80;99.90
22558;DHT22;11445;53.816;8.902;2022-11-20T04:47:23;2.70;99.90
22558;DHT22;11445;53.816;8.902;2022-11-20T04:49:50;2.70;99.90
22558;DHT22;11445;53.816;8.902;2022-11-20T04:52:18;2.70;99.90
22558;DHT22;11445;53.816;8.902;2022-11-20T04:54:46;2.70;99.90
22558;DHT22;11445;53.816;8.902;2022-11-20T04:57:14;2.70;99.90
22558;DHT22;11445;53.816;8.902;2022-11-20T04:59:41;2.70;99.90
22558;DHT22;11445;53.816;8.902;2022-11-20T05:02:09;2.70;99.90
22558;DHT22;11445;53.816;8.902;2022-11-20T05:04:36;2.70;99.90
22558;DHT22;11445;53.816;8.902;2022-11-20T05:07:03;2.70;99.90
22558;DHT22;11445;53.816;8.902;2022-11-20T05:09:30;2.70;99.90
22558;DHT22;11445;53.816;8.902;2022-11-20T05:11:59;2.70;99.90
22558;DHT22;11445;53.816;8.902;2022-11-20T05:14:26;2.70;99.90
22558;DHT22;11445;53.816;8.902;2022-11-20T05:16:53;2.70;99.90
22558;DHT22;11445;53.816;8.902;2022-11-20T05:19:20;2.70;99.90
22558;DHT22;11445;53.816;8.902;2022-11-20T05:21:47;2.70;99.90
22558;DHT22;11445;53.816;8.902;2022-11-20T05:24:14;2.70;99.90
22558;DHT22;11445;53.816;8.902;2022-11-20T05:26:41;2.70;99.90
22558;DHT22;11445;53.816;8.902;2022-11-20T05:29:11;2.60;99.90
22558;DHT22;11445;53.816;8.902;2022-11-20T05:31:39;2.60;99.90
22558;DHT22;11445;53.816;8.902;2022-11-20T05:34:07;2.60;99.90
22558;DHT22;11445;53.816;8.902;2022-11-20T05:36:34;2.60;99.90
22558;DHT22;11445;53.816;8.902;2022-11-20T05:39:01;2.50;99.90
22558;DHT22;11445;53.816;8.902;2022-11-20T05:41:28;2.50;99.90
22558;DHT22;11445;53.816;8.902;2022-11-20T05:43:56;2.50;99.90
22558;DHT22;11445;53.816;8.902;2022-11-20T05:46:25;2.50;99.90
22558;DHT22;11445;53.816;8.902;2022-11-20T05:48:52;2.50;99.90
22558;DHT22;11445;53.816;8.902;2022-11-20T05:51:19;2.50;99.90
22558;DHT22;11445;53.816;8.902;2022-11-20T05:53:46;2.50;99.90
22558;DHT22;11445;53.816;8.902;2022-11-20T05:56:15;2.50;99.90
22558;DHT22;11445;53.816;8.902;2022-11-20T05:58:43;2.50;99.90
22558;DHT22;11445;53.816;8.902;2022-11-20T06:01:12;2.50;99.90
22558;DHT22;11445;53.816;8.902;2022-11-20T06:03:42;2.50;99.90
22558;DHT22;11445;53.816;8.902;2022-11-20T06:06:11;2.50;99.90
22558;DHT22;11445;53.816;8.902;2022-11-20T06:08:39;2.50;99.90
22558;DHT22;11445;53.816;8.902;2022-11-20T06:11:07;2.50;99.90
22558;DHT22;11445;53.816;8.902;2022-11-20T06:13:35;2.50;99.90
22558;DHT22;11445;53.816;8.902;2022-11-20T06:16:02;2.50;99.90
22558;DHT22;11445;53.816;8.902;2022-11-20T06:18:30;2.50;99.90
22558;DHT22;11445;53.816;8.902;2022-11-20T06:21:03;2.50;99.90
22558;DHT22;11445;53.816;8.902;2022-11-20T06:23:32;2.50;99.90
22558;DHT22;11445;53.816;8.902;2022-11-20T06:26:01;2.50;99.90
22558;DHT22;11445;53.816;8.902;2022-11-20T06:28:29;2.40;99.90
22558;DHT22;11445;53.816;8.902;2022-11-20T06:30:56;2.50;99.90
22558;DHT22;11445;53.816;8.902;2022-11-20T06:33:23;2.50;99.90
22558;DHT22;11445;53.816;8.902;2022-11-20T06:35:50;2.50;99.90
22558;DHT22;11445;53.816;8.902;2022-11-20T06:38:18;2.50;99.90
22558;DHT22;11445;53.816;8.902;2022-11-20T06:40:45;2.50;99.90
22558;DHT22;11445;53.816;8.902;2022-11-20T06:43:12;2.50;99.90
22558;DHT22;11445;53.816;8.902;2022-11-20T06:45:39;2.50;99.90
22558;DHT22;11445;53.816;8.902;2022-11-20T06:48:06;2.50;99.90
22558;DHT22;11445;53.816;8.902;2022-11-20T06:50:33;2.50;99.90
22558;DHT22;11445;53.816;8.902;2022-11-20T06:53:01;2.50;99.90
22558;DHT22;11445;53.816;8.902;2022-11-20T06:55:31;2.50;99.90
22558;DHT22;11445;53.816;8.902;2022-11-20T06:57:58;2.50;99.90
22558;DHT22;11445;53.816;8.902;2022-11-20T07:00:25;2.60;99.90
22558;DHT22;11445;53.816;8.902;2022-11-20T07:02:52;2.60;99.90
22558;DHT22;11445;53.816;8.902;2022-11-20T07:05:19;2.60;99.90
22558;DHT22;11445;53.816;8.902;2022-11-20T07:07:46;2.60;99.90
22558;DHT22;11445;53.816;8.902;2022-11-20T07:10:13;2.60;99.90
22558;DHT22;11445;53.816;8.902;2022-11-20T07:12:41;2.50;99.90
22558;DHT22;11445;53.816;8.902;2022-11-20T07:15:08;2.50;99.90
22558;DHT22;11445;53.816;8.902;2022-11-20T07:17:36;2.50;99.90
22558;DHT22;11445;53.816;8.902;2022-11-20T07:20:03;2.60;99.90
22558;DHT22;11445;53.816;8.902;2022-11-20T07:22:30;2.50;99.90
22558;DHT22;11445;53.816;8.902;2022-11-20T07:24:57;2.50;99.90
22558;DHT22;11445;53.816;8.902;2022-11-20T07:27:24;2.50;99.90
22558;DHT22;11445;53.816;8.902;2022-11-20T07:29:52;2.50;99.90
22558;DHT22;11445;53.816;8.902;2022-11-20T07:32:19;2.50;99.90
22558;DHT22;11445;53.816;8.902;2022-11-20T07:34:47;2.40;99.90
22558;DHT22;11445;53.816;8.902;2022-11-20T07:37:14;2.40;99.90
22558;DHT22;11445;53.816;8.902;2022-11-20T07:39:41;2.30;99.90
22558;DHT22;11445;53.816;8.902;2022-11-20T07:42:09;2.30;99.90
22558;DHT22;11445;53.816;8.902;2022-11-20T07:44:37;2.20;99.90
22558;DHT22;11445;53.816;8.902;2022-11-20T07:47:06;2.20;99.90
22558;DHT22;11445;53.816;8.902;2022-11-20T07:49:33;2.20;99.90
22558;DHT22;11445;53.816;8.902;2022-11-20T07:52:00;2.20;99.90
22558;DHT22;11445;53.816;8.902;2022-11-20T07:54:27;2.20;99.90
22558;DHT22;11445;53.816;8.902;2022-11-20T07:56:54;2.20;99.90
22558;DHT22;11445;53.816;8.902;2022-11-20T07:59:21;2.20;99.90
22558;DHT22;11445;53.816;8.902;2022-11-20T08:01:48;2.20;99.90
22558;DHT22;11445;53.816;8.902;2022-11-20T08:04:16;2.20;99.90
22558;DHT22;11445;53.816;8.902;2022-11-20T08:06:43;2.30;99.90
22558;DHT22;11445;53.816;8.902;2022-11-20T08:09:10;2.30;99.90
22558;DHT22;11445;53.816;8.902;2022-11-20T08:11:37;2.30;99.90
22558;DHT22;11445;53.816;8.902;2022-11-20T08:14:22;2.30;99.90
22558;DHT22;11445;53.816;8.902;2022-11-20T08:16:49;2.30;99.90
22558;DHT22;11445;53.816;8.902;2022-11-20T08:19:18;2.30;99.90
22558;DHT22;11445;53.816;8.902;2022-11-20T08:21:45;2.40;99.90
22558;DHT22;11445;53.816;8.902;2022-11-20T08:24:12;2.40;99.90
22558;DHT22;11445;53.816;8.902;2022-11-20T08:26:39;2.50;99.90
22558;DHT22;11445;53.816;8.902;2022-11-20T08:29:07;2.50;99.90
22558;DHT22;11445;53.816;8.902;2022-11-20T08:31:34;2.60;99.90
22558;DHT22;11445;53.816;8.902;2022-11-20T08:34:01;2.60;99.90
22558;DHT22;11445;53.816;8.902;2022-11-20T08:36:33;2.70;99.90
22558;DHT22;11445;53.816;8.902;2022-11-20T08:39:00;2.80;99.90
22558;DHT22;11445;53.816;8.902;2022-11-20T08:41:29;2.80;99.90
22558;DHT22;11445;53.816;8.902;2022-11-20T08:43:59;2.80;99.90
22558;DHT22;11445;53.816;8.902;2022-11-20T08:46:30;2.80;99.90
22558;DHT22;11445;53.816;8.902;2022-11-20T08:48:58;2.70;99.90
22558;DHT22;11445;53.816;8.902;2022-11-20T08:51:25;2.70;99.90
22558;DHT22;11445;53.816;8.902;2022-11-20T08:53:54;2.70;99.90
22558;DHT22;11445;53.816;8.902;2022-11-20T08:56:21;2.80;99.90
22558;DHT22;11445;53.816;8.902;2022-11-20T08:58:49;2.80;99.90
22558;DHT22;11445;53.816;8.902;2022-11-20T09:01:17;2.70;99.90
22558;DHT22;11445;53.816;8.902;2022-11-20T09:03:44;2.70;99.90
22558;DHT22;11445;53.816;8.902;2022-11-20T09:06:11;2.80;99.90
22558;DHT22;11445;53.816;8.902;2022-11-20T09:08:38;2.80;99.90
22558;DHT22;11445;53.816;8.902;2022-11-20T09:11:07;2.80;99.90
22558;DHT22;11445;53.816;8.902;2022-11-20T09:13:35;2.80;99.90
22558;DHT22;11445;53.816;8.902;2022-11-20T09:16:04;3.10;99.90
22558;DHT22;11445;53.816;8.902;2022-11-20T09:18:32;3.30;99.90
22558;DHT22;11445;53.816;8.902;2022-11-20T09:21:03;3.40;99.90
22558;DHT22;11445;53.816;8.902;2022-11-20T09:23:32;3.30;99.90
22558;DHT22;11445;53.816;8.902;2022-11-20T09:26:02;3.30;99.90
22558;DHT22;11445;53.816;8.902;2022-11-20T09:28:31;3.30;99.90
22558;DHT22;11445;53.816;8.902;2022-11-20T09:30:58;3.30;99.90
22558;DHT22;11445;53.816;8.902;2022-11-20T09:33:25;3.30;99.90
22558;DHT22;11445;53.816;8.902;2022-11-20T09:35:52;3.30;99.90
22558;DHT22;11445;53.816;8.902;2022-11-20T09:38:19;3.30;99.90
22558;DHT22;11445;53.816;8.902;2022-11-20T09:40:50;3.30;99.90
22558;DHT22;11445;53.816;8.902;2022-11-20T09:43:21;3.30;99.90
22558;DHT22;11445;53.816;8.902;2022-11-20T09:46:00;3.30;99.90
22558;DHT22;11445;53.816;8.902;2022-11-20T09:48:40;3.30;99.90
22558;DHT22;11445;53.816;8.902;2022-11-20T09:51:16;3.30;99.90
22558;DHT22;11445;53.816;8.902;2022-11-20T09:54:00;3.30;99.90
22558;DHT22;11445;53.816;8.902;2022-11-20T09:56:30;3.30;99.90
22558;DHT22;11445;53.816;8.902;2022-11-20T09:59:03;3.30;99.90
22558;DHT22;11445;53.816;8.902;2022-11-20T10:01:36;3.30;99.90
22558;DHT22;11445;53.816;8.902;2022-11-20T10:04:11;3.30;99.90
22558;DHT22;11445;53.816;8.902;2022-11-20T10:06:47;3.30;99.90
22558;DHT22;11445;53.816;8.902;2022-11-20T10:09:22;3.30;99.90
22558;DHT22;11445;53.816;8.902;2022-11-20T10:12:03;3.30;99.90
22558;DHT22;11445;53.816;8.902;2022-11-20T10:14:38;3.30;99.90
22558;DHT22;11445;53.816;8.902;2022-11-20T10:17:15;3.30;99.90
22558;DHT22;11445;53.816;8.902;2022-11-20T10:19:54;3.30;99.90
22558;DHT22;11445;53.816;8.902;2022-11-20T10:22:35;3.30;99.90
22558;DHT22;11445;53.816;8.902;2022-11-20T10:25:14;3.30;99.90
22558;DHT22;11445;53.816;8.902;2022-11-20T10:27:52;3.30;99.90
22558;DHT22;11445;53.816;8.902;2022-11-20T10:30:23;3.40;99.90
22558;DHT22;11445;53.816;8.902;2022-11-20T10:32:56;3.30;99.90
22558;DHT22;11445;53.816;8.902;2022-11-20T10:35:28;3.30;99.90
22558;DHT22;11445;53.816;8.902;2022-11-20T10:37:58;3.40;99.90
22558;DHT22;11445;53.816;8.902;2022-11-20T10:40:32;3.40;99.90
22558;DHT22;11445;53.816;8.902;2022-11-20T10:43:04;3.50;99.90
22558;DHT22;11445;53.816;8.902;2022-11-20T10:45:43;3.50;99.90
22558;DHT22;11445;53.816;8.902;2022-11-20T10:48:16;3.60;99.90
22558;DHT22;11445;53.816;8.902;2022-11-20T10:50:59;3.60;99.90
22558;DHT22;11445;53.816;8.902;2022-11-20T10:56:22;3.70;99.90
22558;DHT22;11445;53.816;8.902;2022-11-20T10:59:07;3.80;99.90
22558;DHT22;11445;53.816;8.902;2022-11-20T11:01:41;3.80;99.90
22558;DHT22;11445;53.816;8.902;2022-11-20T11:04:22;3.80;99.90
22558;DHT22;11445;53.816;8.902;2022-11-20T11:06:51;3.80;99.90
22558;DHT22;11445;53.816;8.902;2022-11-20T11:09:29;3.90;99.90
22558;DHT22;11445;53.816;8.902;2022-11-20T11:11:59;3.90;99.90
22558;DHT22;11445;53.816;8.902;2022-11-20T11:14:26;3.90;99.90
22558;DHT22;11445;53.816;8.902;2022-11-20T11:16:54;3.90;99.90
22558;DHT22;11445;53.816;8.902;2022-11-20T11:19:23;3.80;99.90
22558;DHT22;11445;53.816;8.902;2022-11-20T11:21:52;3.80;99.90
22558;DHT22;11445;53.816;8.902;2022-11-20T11:24:22;3.80;99.90
22558;DHT22;11445;53.816;8.902;2022-11-20T11:26:55;3.80;99.90
22558;DHT22;11445;53.816;8.902;2022-11-20T11:29:22;3.80;99.90
22558;DHT22;11445;53.816;8.902;2022-11-20T11:32:04;3.90;99.90
22558;DHT22;11445;53.816;8.902;2022-11-20T11:34:32;3.90;99.90
22558;DHT22;11445;53.816;8.902;2022-11-20T11:37:00;3.80;99.90
22558;DHT22;11445;53.816;8.902;2022-11-20T11:39:30;3.80;99.90
22558;DHT22;11445;53.816;8.902;2022-11-20T11:41:58;3.80;99.90
22558;DHT22;11445;53.816;8.902;2022-11-20T11:44:29;3.70;99.90
22558;DHT22;11445;53.816;8.902;2022-11-20T11:47:22;3.80;99.90
22558;DHT22;11445;53.816;8.902;2022-11-20T11:50:01;3.90;99.90
22558;DHT22;11445;53.816;8.902;2022-11-20T11:52:28;3.80;99.90
22558;DHT22;11445;53.816;8.902;2022-11-20T11:54:57;3.80;99.90
22558;DHT22;11445;53.816;8.902;2022-11-20T11:57:32;3.90;99.90
22558;DHT22;11445;53.816;8.902;2022-11-20T12:00:03;3.90;99.90
22558;DHT22;11445;53.816;8.902;2022-11-20T12:02:36;4.00;99.90
22558;DHT22;11445;53.816;8.902;2022-11-20T12:05:15;4.00;99.90
22558;DHT22;11445;53.816;8.902;2022-11-20T12:07:46;4.10;99.90
22558;DHT22;11445;53.816;8.902;2022-11-20T12:10:18;4.10;99.90
22558;DHT22;11445;53.816;8.902;2022-11-20T12:12:50;4.20;99.90
22558;DHT22;11445;53.816;8.902;2022-11-20T12:15:25;4.20;99.90
22558;DHT22;11445;53.816;8.902;2022-11-20T12:17:53;4.10;99.90
22558;DHT22;11445;53.816;8.902;2022-11-20T12:20:24;4.00;99.90
22558;DHT22;11445;53.816;8.902;2022-11-20T12:22:56;4.00;99.90
22558;DHT22;11445;53.816;8.902;2022-11-20T12:25:30;3.90;99.90
22558;DHT22;11445;53.816;8.902;2022-11-20T12:31:00;3.90;99.90
22558;DHT22;11445;53.816;8.902;2022-11-20T12:33:45;3.90;99.90
22558;DHT22;11445;53.816;8.902;2022-11-20T12:36:23;3.80;99.90
22558;DHT22;11445;53.816;8.902;2022-11-20T12:38:58;3.80;99.90
22558;DHT22;11445;53.816;8.902;2022-11-20T12:41:53;3.90;99.90
22558;DHT22;11445;53.816;8.902;2022-11-20T12:45:02;3.90;99.90
22558;DHT22;11445;53.816;8.902;2022-11-20T12:48:01;3.90;99.90
22558;DHT22;11445;53.816;8.902;2022-11-20T12:50:36;3.90;99.90
22558;DHT22;11445;53.816;8.902;2022-11-20T12:53:23;3.90;99.90
22558;DHT22;11445;53.816;8.902;2022-11-20T12:55:56;3.90;99.90
22558;DHT22;11445;53.816;8.902;2022-11-20T12:58:31;3.80;99.90
22558;DHT22;11445;53.816;8.902;2022-11-20T13:01:09;3.90;99.90
22558;DHT22;11445;53.816;8.902;2022-11-20T13:04:03;3.90;99.90
22558;DHT22;11445;53.816;8.902;2022-11-20T13:06:35;3.90;99.90
22558;DHT22;11445;53.816;8.902;2022-11-20T13:09:08;3.90;99.90
22558;DHT22;11445;53.816;8.902;2022-11-20T13:11:42;3.90;99.90
22558;DHT22;11445;53.816;8.902;2022-11-20T13:14:24;3.90;99.90
22558;DHT22;11445;53.816;8.902;2022-11-20T13:16:58;3.90;99.90
22558;DHT22;11445;53.816;8.902;2022-11-20T13:19:26;3.90;99.90
22558;DHT22;11445;53.816;8.902;2022-11-20T13:21:54;3.90;99.90
22558;DHT22;11445;53.816;8.902;2022-11-20T13:24:25;3.90;99.90
22558;DHT22;11445;53.816;8.902;2022-11-20T13:27:18;3.90;99.90
22558;DHT22;11445;53.816;8.902;2022-11-20T13:29:47;3.80;99.90
22558;DHT22;11445;53.816;8.902;2022-11-20T13:32:24;3.80;99.90
22558;DHT22;11445;53.816;8.902;2022-11-20T13:34:52;3.80;99.90
22558;DHT22;11445;53.816;8.902;2022-11-20T13:37:29;3.70;99.90
22558;DHT22;11445;53.816;8.902;2022-11-20T13:40:20;3.70;99.90
22558;DHT22;11445;53.816;8.902;2022-11-20T13:42:55;3.60;99.90
22558;DHT22;11445;53.816;8.902;2022-11-20T13:45:24;3.60;99.90
22558;DHT22;11445;53.816;8.902;2022-11-20T13:47:52;3.50;99.90
22558;DHT22;11445;53.816;8.902;2022-11-20T13:50:26;3.50;99.90
22558;DHT22;11445;53.816;8.902;2022-11-20T13:53:05;3.50;99.90
22558;DHT22;11445;53.816;8.902;2022-11-20T13:55:40;3.60;99.90
22558;DHT22;11445;53.816;8.902;2022-11-20T13:58:23;3.60;99.90
22558;DHT22;11445;53.816;8.902;2022-11-20T14:00:58;3.80;99.90
22558;DHT22;11445;53.816;8.902;2022-11-20T14:03:28;4.00;99.90
22558;DHT22;11445;53.816;8.902;2022-11-20T14:05:59;4.00;99.90
22558;DHT22;11445;53.816;8.902;2022-11-20T14:08:32;4.00;99.90
22558;DHT22;11445;53.816;8.902;2022-11-20T14:11:05;3.90;99.90
22558;DHT22;11445;53.816;8.902;2022-11-20T14:13:32;3.90;99.90
22558;DHT22;11445;53.816;8.902;2022-11-20T14:15:59;3.80;99.90
22558;DHT22;11445;53.816;8.902;2022-11-20T14:18:26;3.80;99.90
22558;DHT22;11445;53.816;8.902;2022-11-20T14:20:54;3.90;99.90
22558;DHT22;11445;53.816;8.902;2022-11-20T14:23:25;3.90;99.90
22558;DHT22;11445;53.816;8.902;2022-11-20T14:25:52;3.90;99.90
22558;DHT22;11445;53.816;8.902;2022-11-20T14:28:25;3.80;99.90
22558;DHT22;11445;53.816;8.902;2022-11-20T14:30:52;3.70;99.90
22558;DHT22;11445;53.816;8.902;2022-11-20T14:33:20;3.70;99.90
22558;DHT22;11445;53.816;8.902;2022-11-20T14:35:52;3.60;99.90
22558;DHT22;11445;53.816;8.902;2022-11-20T14:38:23;3.50;99.90
22558;DHT22;11445;53.816;8.902;2022-11-20T14:40:51;3.50;99.90
22558;DHT22;11445;53.816;8.902;2022-11-20T14:43:23;3.40;99.90
22558;DHT22;11445;53.816;8.902;2022-11-20T14:45:56;3.30;99.90
22558;DHT22;11445;53.816;8.902;2022-11-20T14:48:28;3.20;99.90
22558;DHT22;11445;53.816;8.902;2022-11-20T14:50:56;3.20;99.90
22558;DHT22;11445;53.816;8.902;2022-11-20T14:53:24;3.10;99.90
22558;DHT22;11445;53.816;8.902;2022-11-20T14:55:57;3.10;99.90
22558;DHT22;11445;53.816;8.902;2022-11-20T14:58:27;3.00;99.90
22558;DHT22;11445;53.816;8.902;2022-11-20T15:00:55;2.90;99.90
22558;DHT22;11445;53.816;8.902;2022-11-20T15:03:30;2.90;99.90
22558;DHT22;11445;53.816;8.902;2022-11-20T15:05:57;2.80;99.90
22558;DHT22;11445;53.816;8.902;2022-11-20T15:08:24;2.80;99.90
22558;DHT22;11445;53.816;8.902;2022-11-20T15:10:51;2.80;99.90
22558;DHT22;11445;53.816;8.902;2022-11-20T15:13:31;3.00;99.90
22558;DHT22;11445;53.816;8.902;2022-11-20T15:15:59;3.00;99.90
22558;DHT22;11445;53.816;8.902;2022-11-20T15:18:28;3.00;99.90
22558;DHT22;11445;53.816;8.902;2022-11-20T15:20:57;2.90;99.90
22558;DHT22;11445;53.816;8.902;2022-11-20T15:23:26;2.80;99.90
22558;DHT22;11445;53.816;8.902;2022-11-20T15:25:53;2.70;99.90
22558;DHT22;11445;53.816;8.902;2022-11-20T15:28:22;2.60;99.90
22558;DHT22;11445;53.816;8.902;2022-11-20T15:30:52;2.50;99.90
22558;DHT22;11445;53.816;8.902;2022-11-20T15:33:19;2.40;99.90
22558;DHT22;11445;53.816;8.902;2022-11-20T15:35:46;2.30;99.90
22558;DHT22;11445;53.816;8.902;2022-11-20T15:38:13;2.30;99.90
22558;DHT22;11445;53.816;8.902;2022-11-20T15:40:40;2.70;99.90
22558;DHT22;11445;53.816;8.902;2022-11-20T15:43:07;3.30;99.90
22558;DHT22;11445;53.816;8.902;2022-11-20T15:45:37;3.40;99.90
22558;DHT22;11445;53.816;8.902;2022-11-20T15:48:09;3.30;99.90
22558;DHT22;11445;53.816;8.902;2022-11-20T15:50:43;3.10;99.90
22558;DHT22;11445;53.816;8.902;2022-11-20T15:53:11;2.90;99.90
22558;DHT22;11445;53.816;8.902;2022-11-20T15:55:38;2.70;99.90
22558;DHT22;11445;53.816;8.902;2022-11-20T15:58:05;2.60;99.90
22558;DHT22;11445;53.816;8.902;2022-11-20T16:00:32;2.40;99.90
22558;DHT22;11445;53.816;8.902;2022-11-20T16:02:59;2.40;99.90
22558;DHT22;11445;53.816;8.902;2022-11-20T16:05:29;2.30;99.90
22558;DHT22;11445;53.816;8.902;2022-11-20T16:07:57;2.70;99.90
22558;DHT22;11445;53.816;8.902;2022-11-20T16:10:24;2.90;99.90
22558;DHT22;11445;53.816;8.902;2022-11-20T16:12:51;2.80;99.90